createdAt,value
2022-10-28T00:01:03.719Z,101430.47
2022-10-28T00:03:33.005Z,101418.75
2022-10-28T00:06:03.758Z,101416.84
2022-10-28T00:08:31.638Z,101414.34
2022-10-28T00:11:04.413Z,101415.16
2022-10-28T00:13:32.290Z,101414.34
2022-10-28T00:16:05.956Z,101417.91
2022-10-28T00:18:35.224Z,101398.63
2022-10-28T00:21:03.962Z,101386.28
2022-10-28T00:23:31.894Z,101399.91
2022-10-28T00:26:06.093Z,101399.06
2022-10-28T00:28:34.017Z,101403.44
2022-10-28T00:31:06.748Z,101403.44
2022-10-28T00:33:36.096Z,101400.72
2022-10-28T00:36:14.111Z,101397.97
2022-10-28T00:38:42.119Z,101390.88
2022-10-28T00:41:11.552Z,101399.91
2022-10-28T00:43:40.945Z,101393.38
2022-10-28T00:46:14.929Z,101381.63
2022-10-28T00:48:44.732Z,101380.81
2022-10-28T00:51:12.906Z,101374.28
2022-10-28T00:53:40.856Z,101369.91
2022-10-28T00:56:09.088Z,101376.19
2022-10-28T00:58:36.929Z,101379.75
2022-10-28T01:01:05.282Z,101370.72
2022-10-28T01:03:33.151Z,101381.03
2022-10-28T01:06:02.365Z,101391.09
2022-10-28T01:08:30.226Z,101399.25
2022-10-28T01:11:06.317Z,101404.50
2022-10-28T01:13:42.054Z,101392.97
2022-10-28T01:16:18.534Z,101392.75
2022-10-28T01:18:50.350Z,101382.72
2022-10-28T01:21:33.631Z,101372.84
2022-10-28T01:24:10.527Z,101379.13
2022-10-28T01:26:57.486Z,101379.97
2022-10-28T01:29:49.703Z,101221.81
2022-10-28T01:32:22.820Z,101369.28
2022-10-28T01:34:52.627Z,101369.94
2022-10-28T01:37:23.441Z,101373.06
2022-10-28T01:39:52.740Z,101380.19
2022-10-28T01:42:25.305Z,101376.63
2022-10-28T01:44:54.061Z,101385.63
2022-10-28T01:47:23.989Z,101381.88
2022-10-28T01:49:55.078Z,101388.38
2022-10-28T01:52:24.549Z,101358.44
2022-10-28T01:54:55.295Z,101384.78
2022-10-28T01:57:23.186Z,101374.56
2022-10-28T01:59:51.042Z,101386.28
2022-10-28T02:02:19.323Z,101386.47
2022-10-28T02:04:48.684Z,101386.47
2022-10-28T02:07:16.537Z,101390.88
2022-10-28T02:09:58.699Z,101346.88
2022-10-28T02:12:27.723Z,101357.81
2022-10-28T02:15:20.872Z,101364.69
2022-10-28T02:17:56.354Z,101368.44
2022-10-28T02:20:31.479Z,101358.84
2022-10-28T02:23:02.696Z,101364.88
2022-10-28T02:25:33.664Z,101372.00
2022-10-28T02:28:03.888Z,101337.47
2022-10-28T02:30:34.025Z,101367.81
2022-10-28T02:33:02.953Z,101368.44
2022-10-28T02:35:33.181Z,101371.38
2022-10-28T02:38:02.558Z,101360.28
2022-10-28T02:40:30.681Z,101363.84
2022-10-28T02:43:00.286Z,101359.44
2022-10-28T02:45:29.647Z,101361.13
2022-10-28T02:47:58.900Z,101346.84
2022-10-28T02:50:30.318Z,101346.84
2022-10-28T02:53:00.266Z,101344.13
2022-10-28T02:55:30.871Z,101341.41
2022-10-28T02:57:58.733Z,101312.50
2022-10-28T03:00:26.980Z,101343.28
2022-10-28T03:02:54.854Z,101332.19
2022-10-28T03:05:22.732Z,101292.69
2022-10-28T03:07:50.739Z,101346.00
2022-10-28T03:10:20.531Z,101343.28
2022-10-28T03:12:48.392Z,101340.56
2022-10-28T03:15:16.305Z,101337.63
2022-10-28T03:17:44.417Z,101337.63
2022-10-28T03:20:13.001Z,101339.50
2022-10-28T03:22:40.850Z,101348.31
2022-10-28T03:25:09.058Z,101346.66
2022-10-28T03:27:40.299Z,101348.31
2022-10-28T03:30:11.224Z,101340.16
2022-10-28T03:32:39.071Z,101340.16
2022-10-28T03:35:08.430Z,101340.16
2022-10-28T03:37:36.324Z,101327.56
2022-10-28T03:40:07.864Z,101319.00
2022-10-28T03:42:38.824Z,101323.78
2022-10-28T03:45:12.429Z,101322.97
2022-10-28T03:47:40.646Z,101316.66
2022-10-28T03:50:09.600Z,101310.16
2022-10-28T03:52:38.668Z,101312.06
2022-10-28T03:55:06.957Z,101307.66
2022-10-28T03:57:34.948Z,101300.31
2022-10-28T04:00:02.877Z,101304.72
2022-10-28T04:02:32.190Z,101299.47
2022-10-28T04:05:00.185Z,101293.19
2022-10-28T04:07:28.022Z,101298.44
2022-10-28T04:09:56.167Z,101300.31
2022-10-28T04:12:24.054Z,101295.72
2022-10-28T04:14:51.979Z,101298.44
2022-10-28T04:17:19.843Z,101303.03
2022-10-28T04:19:49.103Z,101311.22
2022-10-28T04:22:17.279Z,101313.94
2022-10-28T04:24:45.153Z,101321.28
2022-10-28T04:27:13.012Z,101324.00
2022-10-28T04:29:40.892Z,101280.28
2022-10-28T04:32:09.718Z,101320.44
2022-10-28T04:34:37.584Z,101324.00
2022-10-28T04:37:06.820Z,101325.88
2022-10-28T04:39:34.724Z,101334.91
2022-10-28T04:42:02.826Z,101298.69
2022-10-28T04:44:30.757Z,101316.88
2022-10-28T04:46:58.614Z,101321.28
2022-10-28T04:49:26.481Z,101321.91
2022-10-28T04:51:54.634Z,101328.41
2022-10-28T04:54:23.870Z,101319.19
2022-10-28T04:56:51.751Z,101318.34
2022-10-28T04:59:19.671Z,101325.69
2022-10-28T05:01:47.965Z,101326.53
2022-10-28T05:04:15.968Z,101326.53
2022-10-28T05:06:43.896Z,101324.63
2022-10-28T05:09:11.790Z,101331.13
2022-10-28T05:11:41.000Z,101325.69
2022-10-28T05:14:08.919Z,101331.97
2022-10-28T05:16:36.928Z,101321.06
2022-10-28T05:19:04.880Z,101322.13
2022-10-28T05:21:33.189Z,101322.31
2022-10-28T05:24:01.144Z,101328.41
2022-10-28T05:26:29.100Z,101324.00
2022-10-28T05:28:58.428Z,101321.72
2022-10-28T05:31:26.877Z,101326.72
2022-10-28T05:33:54.822Z,101232.22
2022-10-28T05:36:22.694Z,101317.72
2022-10-28T05:38:50.556Z,101320.44
2022-10-28T05:41:18.470Z,101330.50
2022-10-28T05:43:46.398Z,101332.38
2022-10-28T05:46:15.575Z,101338.69
2022-10-28T05:48:43.468Z,101340.34
2022-10-28T05:51:11.598Z,101337.63
2022-10-28T05:53:41.579Z,101332.38
2022-10-28T05:56:09.474Z,101317.34
2022-10-28T05:58:37.499Z,101301.81
2022-10-28T06:01:08.216Z,101335.75
2022-10-28T06:03:37.668Z,101333.03
2022-10-28T06:06:05.626Z,101331.97
2022-10-28T06:08:33.504Z,101331.97
2022-10-28T06:11:00.139Z,101334.69
2022-10-28T06:13:28.031Z,101331.97
2022-10-28T06:15:56.633Z,101323.78
2022-10-28T06:18:24.653Z,101331.97
2022-10-28T06:20:54.716Z,101323.78
2022-10-28T06:23:22.895Z,101333.66
2022-10-28T06:25:50.915Z,101324.41
2022-10-28T06:28:18.861Z,101338.66
2022-10-28T06:30:47.010Z,101333.22
2022-10-28T06:33:14.853Z,101342.22
2022-10-28T06:35:42.728Z,101316.50
2022-10-28T06:38:11.997Z,101345.16
2022-10-28T06:40:40.250Z,101346.00
2022-10-28T06:43:11.020Z,101341.59
2022-10-28T06:45:38.899Z,101346.19
2022-10-28T06:48:08.310Z,101345.41
2022-10-28T06:50:36.495Z,101353.56
2022-10-28T06:53:04.386Z,101357.34
2022-10-28T06:55:33.685Z,101348.94
2022-10-28T06:58:01.676Z,101340.16
2022-10-28T07:03:02.911Z,101354.63
2022-10-28T07:05:30.833Z,101359.22
2022-10-28T07:07:58.679Z,101352.94
2022-10-28T07:10:26.650Z,101356.72
2022-10-28T07:12:56.147Z,101361.13
2022-10-28T07:15:24.365Z,101348.75
2022-10-28T07:17:55.163Z,101355.66
2022-10-28T07:20:23.715Z,101217.81
2022-10-28T07:22:56.853Z,101358.38
2022-10-28T07:25:24.763Z,101365.50
2022-10-28T07:27:52.968Z,101358.19
2022-10-28T07:30:22.468Z,101361.75
2022-10-28T07:32:50.359Z,101365.50
2022-10-28T07:35:18.359Z,101366.34
2022-10-28T07:37:46.273Z,101361.75
2022-10-28T07:40:14.543Z,101360.06
2022-10-28T07:42:42.400Z,101358.19
2022-10-28T07:45:10.530Z,101361.13
2022-10-28T07:47:39.789Z,101354.81
2022-10-28T07:50:08.277Z,101360.06
2022-10-28T07:52:36.191Z,101378.09
2022-10-28T07:55:04.168Z,101387.31
2022-10-28T07:57:32.089Z,101390.03
2022-10-28T08:00:01.257Z,101373.25
2022-10-28T08:02:29.154Z,101382.72
2022-10-28T08:05:00.116Z,101390.03
2022-10-28T08:07:28.027Z,101388.16
2022-10-28T08:09:55.919Z,101388.38
2022-10-28T08:12:24.813Z,101389.19
2022-10-28T08:14:52.696Z,101391.94
2022-10-28T08:17:20.587Z,101389.19
2022-10-28T08:19:48.453Z,101353.19
2022-10-28T08:22:17.996Z,101369.94
2022-10-28T08:24:45.883Z,101365.94
2022-10-28T08:27:13.752Z,101368.44
2022-10-28T08:29:41.728Z,101372.00
2022-10-28T08:32:09.742Z,101376.00
2022-10-28T08:34:40.809Z,101373.69
2022-10-28T08:37:12.702Z,101371.19
2022-10-28T08:39:42.074Z,101374.34
2022-10-28T08:42:22.574Z,101359.88
2022-10-28T08:45:19.262Z,101373.69
2022-10-28T08:47:53.614Z,101362.78
2022-10-28T08:50:22.176Z,101321.16
2022-10-28T08:52:52.877Z,101361.34
2022-10-28T08:55:24.146Z,101370.13
2022-10-28T08:57:53.705Z,101371.81
2022-10-28T09:00:23.965Z,101361.13
2022-10-28T09:03:07.165Z,101352.75
2022-10-28T09:05:35.134Z,101356.28
2022-10-28T09:08:03.012Z,101349.56
2022-10-28T09:11:06.828Z,101360.06
2022-10-28T09:13:42.073Z,101354.81
2022-10-28T09:16:16.072Z,101365.72
2022-10-28T09:18:51.958Z,101365.50
2022-10-28T09:21:22.286Z,101358.38
2022-10-28T09:23:54.484Z,101356.50
2022-10-28T09:26:28.335Z,101353.78
2022-10-28T09:29:02.843Z,101358.38
2022-10-28T09:31:35.696Z,101353.97
2022-10-28T09:34:12.416Z,101350.22
2022-10-28T09:36:43.427Z,101356.50
2022-10-28T09:39:14.998Z,101344.56
2022-10-28T09:41:42.862Z,101359.22
2022-10-28T09:44:15.764Z,101361.13
2022-10-28T09:46:43.638Z,101349.38
2022-10-28T09:49:13.528Z,101359.22
2022-10-28T09:51:45.043Z,101361.94
2022-10-28T09:54:13.663Z,101360.28
2022-10-28T09:56:41.590Z,101350.84
2022-10-28T09:59:14.550Z,101361.13
2022-10-28T10:01:43.725Z,101345.22
2022-10-28T10:04:17.265Z,101352.09
2022-10-28T10:06:45.207Z,101343.53
2022-10-28T10:09:14.727Z,101356.50
2022-10-28T10:11:44.836Z,101350.84
2022-10-28T10:14:16.298Z,101372.00
2022-10-28T10:16:46.638Z,101357.34
2022-10-28T10:19:14.505Z,101368.25
2022-10-28T10:21:44.538Z,101353.78
2022-10-28T10:24:26.493Z,101347.94
2022-10-28T10:26:54.358Z,101357.94
2022-10-28T10:29:23.787Z,101353.34
2022-10-28T10:32:04.204Z,101342.22
2022-10-28T10:34:32.052Z,101350.19
2022-10-28T10:36:59.946Z,101346.00
2022-10-28T10:39:35.811Z,101351.03
2022-10-28T10:42:03.786Z,101349.34
2022-10-28T10:44:34.133Z,101353.75
2022-10-28T10:47:20.610Z,101345.78
2022-10-28T10:49:49.794Z,101343.91
2022-10-28T10:52:20.270Z,101321.75
2022-10-28T10:54:57.773Z,101253.13
2022-10-28T10:57:25.603Z,101336.13
2022-10-28T10:59:55.303Z,101323.63
2022-10-28T11:02:25.170Z,101334.25
2022-10-28T11:04:53.182Z,101316.69
2022-10-28T11:07:21.060Z,101334.50
2022-10-28T11:09:49.665Z,101308.97
2022-10-28T11:12:18.016Z,101328.19
2022-10-28T11:14:57.076Z,101321.91
2022-10-28T11:17:26.268Z,101322.75
2022-10-28T11:19:55.999Z,101314.56
2022-10-28T11:22:31.177Z,101312.91
2022-10-28T11:25:22.270Z,101302.00
2022-10-28T11:27:57.583Z,101302.00
2022-10-28T11:30:28.737Z,101259.72
2022-10-28T11:33:07.987Z,101297.97
2022-10-28T11:35:51.230Z,101285.44
2022-10-28T11:38:26.836Z,101281.03
2022-10-28T11:41:03.134Z,101278.72
2022-10-28T11:43:34.107Z,101282.72
2022-10-28T11:46:06.574Z,101281.25
2022-10-28T11:48:46.124Z,101272.03
2022-10-28T11:51:20.480Z,101285.44
2022-10-28T11:54:01.424Z,101280.00
2022-10-28T11:56:33.357Z,101283.53
2022-10-28T11:59:09.456Z,101272.84
2022-10-28T12:01:45.122Z,101277.25
2022-10-28T12:04:25.861Z,101266.38
2022-10-28T12:07:15.616Z,101274.53
2022-10-28T12:09:50.312Z,101236.22
2022-10-28T12:12:19.837Z,101269.09
2022-10-28T12:14:52.110Z,101270.72
2022-10-28T12:17:25.714Z,101267.00
2022-10-28T12:19:55.101Z,101260.06
2022-10-28T12:22:24.882Z,101255.47
2022-10-28T12:24:52.863Z,101246.44
2022-10-28T12:27:22.764Z,101248.09
2022-10-28T12:29:52.505Z,101258.19
2022-10-28T12:32:23.543Z,101259.84
2022-10-28T12:34:54.694Z,101250.00
2022-10-28T12:37:23.272Z,101250.00
2022-10-28T12:39:54.892Z,101210.66
2022-10-28T12:42:25.725Z,101237.84
2022-10-28T12:44:53.912Z,101238.03
2022-10-28T12:47:25.669Z,101209.19
2022-10-28T12:50:01.567Z,101232.81
2022-10-28T12:52:34.413Z,101244.13
2022-10-28T12:55:06.775Z,101236.78
2022-10-28T12:57:38.121Z,101232.16
2022-10-28T13:00:10.447Z,101240.53
2022-10-28T13:02:41.965Z,101191.22
2022-10-28T13:05:11.767Z,101236.78
2022-10-28T13:08:02.846Z,101243.06
2022-10-28T13:10:32.969Z,101235.94
2022-10-28T13:13:16.211Z,101244.94
2022-10-28T13:16:10.938Z,101227.19
2022-10-28T13:19:21.514Z,101243.53
2022-10-28T13:22:02.007Z,101255.00
2022-10-28T13:24:31.103Z,101257.56
2022-10-28T13:26:59.163Z,101262.34
2022-10-28T13:29:28.125Z,101265.91
2022-10-28T13:31:56.308Z,101273.25
2022-10-28T13:34:35.317Z,101274.94
2022-10-28T13:37:04.526Z,101274.94
2022-10-28T13:39:44.136Z,101218.28
2022-10-28T13:42:45.903Z,101274.09
2022-10-28T13:45:52.199Z,101279.53
2022-10-28T13:48:45.290Z,101286.03
2022-10-28T13:51:40.881Z,101285.19
2022-10-28T13:54:24.892Z,101175.44
2022-10-28T13:56:52.844Z,101276.19
2022-10-28T13:59:25.760Z,101274.28
2022-10-28T14:02:33.864Z,101272.41
2022-10-28T14:05:05.489Z,101272.41
2022-10-28T14:07:35.189Z,101285.00
2022-10-28T14:10:21.729Z,101289.41
2022-10-28T14:12:50.581Z,101291.28
2022-10-28T14:15:20.790Z,101285.19
2022-10-28T14:17:50.810Z,101294.00
2022-10-28T14:20:25.407Z,101304.06
2022-10-28T14:22:54.830Z,101307.63
2022-10-28T14:26:00.453Z,101310.34
2022-10-28T14:28:52.325Z,101298.03
2022-10-28T14:31:24.633Z,101312.44
2022-10-28T14:34:32.259Z,101311.41
2022-10-28T14:37:01.886Z,101305.13
2022-10-28T14:39:40.240Z,101309.72
2022-10-28T14:42:21.747Z,101324.19
2022-10-28T14:45:02.057Z,101329.66
2022-10-28T14:47:40.290Z,101338.66
2022-10-28T14:50:15.724Z,101330.69
2022-10-28T14:52:43.624Z,101322.75
2022-10-28T14:55:21.702Z,101330.47
2022-10-28T14:57:49.547Z,101328.81
2022-10-28T15:00:19.562Z,101304.34
2022-10-28T15:02:47.683Z,101342.22
2022-10-28T15:05:16.829Z,101344.94
2022-10-28T15:07:44.730Z,101352.28
2022-10-28T15:10:18.925Z,101349.56
2022-10-28T15:12:48.927Z,101355.00
2022-10-28T15:15:18.036Z,101356.06
2022-10-28T15:17:45.973Z,101367.78
2022-10-28T15:20:20.699Z,101366.97
2022-10-28T15:22:48.762Z,101374.09
2022-10-28T15:25:18.836Z,101370.31
2022-10-28T15:27:47.350Z,101376.59
2022-10-28T15:30:16.570Z,101381.22
2022-10-28T15:32:44.492Z,101385.00
2022-10-28T15:35:40.173Z,101380.81
2022-10-28T15:38:33.219Z,101386.03
2022-10-28T15:41:02.621Z,101397.78
2022-10-28T15:43:31.288Z,101390.44
2022-10-28T15:46:09.983Z,101394.22
2022-10-28T15:48:38.398Z,101389.41
2022-10-28T15:51:13.272Z,101407.84
2022-10-28T15:53:41.346Z,101411.41
2022-10-28T15:56:24.202Z,101410.16
2022-10-28T15:59:09.027Z,101420.41
2022-10-28T16:01:39.495Z,101395.06
2022-10-28T16:04:08.079Z,101405.94
2022-10-28T16:06:36.418Z,101416.66
2022-10-28T16:09:08.442Z,101400.09
2022-10-28T16:11:42.055Z,101409.13
2022-10-28T16:14:22.868Z,101420.22
2022-10-28T16:16:50.970Z,101428.38
2022-10-28T16:19:23.824Z,101429.03
2022-10-28T16:21:51.728Z,101434.88
2022-10-28T16:24:19.749Z,101434.03
2022-10-28T16:26:49.173Z,101422.13
2022-10-28T16:29:17.144Z,101430.28
2022-10-28T16:31:45.321Z,101438.44
2022-10-28T16:34:15.015Z,101413.97
2022-10-28T16:36:42.915Z,101436.78
2022-10-28T16:39:12.955Z,101443.06
2022-10-28T16:41:41.735Z,101445.78
2022-10-28T16:44:15.499Z,101457.13
2022-10-28T16:46:43.440Z,101458.56
2022-10-28T16:49:11.430Z,101462.13
2022-10-28T16:51:39.894Z,101453.97
2022-10-28T16:54:07.838Z,101464.03
2022-10-28T16:56:35.791Z,101465.72
2022-10-28T16:59:03.983Z,101457.53
2022-10-28T17:01:33.426Z,101455.84
2022-10-28T17:04:01.714Z,101462.13
2022-10-28T17:06:29.652Z,101464.03
2022-10-28T17:09:02.934Z,101471.38
2022-10-28T17:14:04.441Z,101383.22
2022-10-28T17:16:35.158Z,101468.63
2022-10-28T17:19:04.942Z,101454.22
2022-10-28T17:21:32.905Z,101472.63
2022-10-28T17:24:00.995Z,101486.03
2022-10-28T17:26:28.877Z,101485.00
2022-10-28T17:28:56.779Z,101485.00
2022-10-28T17:31:25.633Z,101481.41
2022-10-28T17:33:57.871Z,101488.56
2022-10-28T17:36:25.838Z,101489.59
2022-10-28T17:38:53.676Z,101486.88
2022-10-28T17:41:21.593Z,101492.31
2022-10-28T17:43:49.472Z,101485.00
2022-10-28T17:46:17.318Z,101479.75
2022-10-28T17:48:45.215Z,101482.47
2022-10-28T17:51:14.749Z,101479.53
2022-10-28T17:53:42.624Z,101480.59
2022-10-28T17:56:10.615Z,101476.22
2022-10-28T17:58:38.510Z,101474.28
2022-10-28T18:01:07.796Z,101483.31
2022-10-28T18:03:38.961Z,101487.91
2022-10-28T18:06:08.187Z,101491.47
2022-10-28T18:08:38.243Z,101510.56
2022-10-28T18:11:06.687Z,101509.50
2022-10-28T18:13:35.498Z,101503.25
2022-10-28T18:16:05.204Z,101527.75
2022-10-28T18:18:37.453Z,101528.59
2022-10-28T18:21:09.614Z,101532.38
2022-10-28T18:23:38.928Z,101535.09
2022-10-28T18:26:07.769Z,101543.25
2022-10-28T18:28:36.360Z,101534.25
2022-10-28T18:31:05.375Z,101534.25
2022-10-28T18:33:33.349Z,101525.03
2022-10-28T18:36:01.293Z,101531.53
2022-10-28T18:38:29.159Z,101528.00
2022-10-28T18:40:58.706Z,101536.16
2022-10-28T18:43:26.595Z,101511.63
2022-10-28T18:45:54.491Z,101529.44
2022-10-28T18:48:22.624Z,101532.59
2022-10-28T18:50:56.696Z,101530.72
2022-10-28T18:53:24.637Z,101543.50
2022-10-28T18:55:52.558Z,101545.38
2022-10-28T18:58:21.838Z,101540.78
2022-10-28T19:00:49.980Z,101543.50
2022-10-28T19:03:20.211Z,101548.09
2022-10-28T19:05:48.090Z,101541.81
2022-10-28T19:08:16.014Z,101539.94
2022-10-28T19:10:44.153Z,101551.69
2022-10-28T19:13:12.052Z,101553.31
2022-10-28T19:15:46.741Z,101555.00
2022-10-28T19:18:16.933Z,101546.84
2022-10-28T19:20:48.507Z,101544.94
2022-10-28T19:23:16.402Z,101557.72
2022-10-28T19:25:44.743Z,101566.97
2022-10-28T19:28:12.700Z,101566.97
2022-10-28T19:30:42.259Z,101562.56
2022-10-28T19:33:10.187Z,101563.41
2022-10-28T19:35:38.147Z,101569.91
2022-10-28T19:38:06.034Z,101566.75
2022-10-28T19:40:34.353Z,101578.94
2022-10-28T19:43:02.212Z,101565.09
2022-10-28T19:45:30.101Z,101583.53
2022-10-28T19:48:02.815Z,101596.31
2022-10-28T19:50:30.984Z,101548.72
2022-10-28T19:52:58.897Z,101601.34
2022-10-28T19:55:26.766Z,101602.19
2022-10-28T19:57:54.883Z,101609.31
2022-10-28T20:00:23.206Z,101593.59
2022-10-28T20:02:51.080Z,101599.25
2022-10-28T20:05:20.367Z,101610.16
2022-10-28T20:07:48.931Z,101609.53
2022-10-28T20:10:17.031Z,101599.66
2022-10-28T20:12:45.017Z,101617.06
2022-10-28T20:15:12.980Z,101612.69
2022-10-28T20:17:40.884Z,101606.38
2022-10-28T20:20:10.301Z,101609.72
2022-10-28T20:22:42.309Z,101629.66
2022-10-28T20:25:11.105Z,101625.03
2022-10-28T20:27:38.968Z,101604.91
2022-10-28T20:30:10.510Z,101623.16
2022-10-28T20:32:38.444Z,101622.72
2022-10-28T20:35:07.106Z,101611.59
2022-10-28T20:37:34.962Z,101624.63
2022-10-28T20:40:07.458Z,101622.72
2022-10-28T20:42:35.693Z,101624.41
2022-10-28T20:45:03.690Z,101638.88
2022-10-28T20:47:31.602Z,101643.28
2022-10-28T20:50:00.139Z,101642.25
2022-10-28T20:52:28.194Z,101654.00
2022-10-28T20:54:56.095Z,101656.72
2022-10-28T20:57:25.659Z,101656.72
2022-10-28T20:59:53.509Z,101660.06
2022-10-28T21:02:21.600Z,101663.63
2022-10-28T21:04:49.664Z,101662.56
2022-10-28T21:07:17.553Z,101654.84
2022-10-28T21:09:45.457Z,101663.41
2022-10-28T21:12:13.680Z,101661.53
2022-10-28T21:14:43.086Z,101665.31
2022-10-28T21:17:11.021Z,101673.47
2022-10-28T21:19:38.958Z,101672.63
2022-10-28T21:22:07.133Z,101664.47
2022-10-28T21:24:35.045Z,101665.31
2022-10-28T21:27:02.941Z,101660.06
2022-10-28T21:29:30.902Z,101664.47
2022-10-28T21:32:00.482Z,101662.78
2022-10-28T21:34:28.407Z,101665.50
2022-10-28T21:36:56.301Z,101661.31
2022-10-28T21:39:24.234Z,101664.66
2022-10-28T21:41:52.347Z,101669.28
2022-10-28T21:44:20.254Z,101671.19
2022-10-28T21:46:48.515Z,101683.75
2022-10-28T21:49:17.789Z,101678.53
2022-10-28T21:51:46.052Z,101682.28
2022-10-28T21:54:13.971Z,101675.16
2022-10-28T21:56:41.906Z,101671.38
2022-10-28T21:59:09.868Z,101673.28
2022-10-28T22:01:38.119Z,101666.13
2022-10-28T22:04:06.556Z,101680.59
2022-10-28T22:06:35.919Z,101678.91
2022-10-28T22:09:04.183Z,101670.97
2022-10-28T22:11:32.428Z,101669.06
2022-10-28T22:14:01.066Z,101662.56
2022-10-28T22:16:29.443Z,101661.75
2022-10-28T22:18:58.549Z,101671.59
2022-10-28T22:21:28.236Z,101680.59
2022-10-28T22:23:57.593Z,101680.59
2022-10-28T22:26:26.567Z,101679.75
2022-10-28T22:28:54.461Z,101678.91
2022-10-28T22:31:23.674Z,101674.31
2022-10-28T22:33:51.753Z,101678.09
2022-10-28T22:36:20.580Z,101678.09
2022-10-28T22:38:48.546Z,101674.31
2022-10-28T22:41:18.962Z,101680.59
2022-10-28T22:43:47.832Z,101680.19
2022-10-28T22:46:17.068Z,101677.47
2022-10-28T22:48:45.243Z,101695.50
2022-10-28T22:51:13.427Z,101672.03
2022-10-28T22:53:41.455Z,101661.75
2022-10-28T22:56:10.142Z,101669.50
2022-10-28T22:58:39.760Z,101672.22
2022-10-28T23:01:08.634Z,101679.56
2022-10-28T23:03:37.548Z,101570.25
2022-10-28T23:06:05.483Z,101667.81
2022-10-28T23:08:33.406Z,101669.69
2022-10-28T23:11:01.581Z,101670.53
2022-10-28T23:13:29.560Z,101680.59
2022-10-28T23:16:03.112Z,101670.72
2022-10-28T23:18:30.965Z,101671.56
2022-10-28T23:21:04.006Z,101683.31
2022-10-28T23:23:31.930Z,101681.63
2022-10-28T23:25:59.795Z,101673.69
2022-10-28T23:28:27.718Z,101666.56
2022-10-28T23:30:55.866Z,101674.53
2022-10-28T23:33:25.107Z,101674.53
2022-10-28T23:35:56.088Z,101678.31
2022-10-28T23:38:24.011Z,101682.72
2022-10-28T23:40:57.414Z,101681.88
2022-10-28T23:43:25.309Z,101678.31
2022-10-28T23:45:53.231Z,101688.16
2022-10-28T23:48:21.140Z,101691.94
2022-10-28T23:50:50.960Z,101698.22
2022-10-28T23:53:18.878Z,101700.09
2022-10-28T23:55:47.144Z,101672.22
2022-10-28T23:58:15.129Z,101666.78
